createdAt,value
2018-11-02T00:01:01.006Z,97.34
2018-11-02T00:03:28.722Z,97.08
2018-11-02T00:05:56.446Z,97.23
2018-11-02T00:08:24.222Z,97.34
2018-11-02T00:10:51.930Z,96.96
2018-11-02T00:13:19.685Z,97.13
2018-11-02T00:15:47.417Z,97.41
2018-11-02T00:18:15.118Z,97.54
2018-11-02T00:20:43.102Z,97.31
2018-11-02T00:23:10.798Z,97.55
2018-11-02T00:25:38.561Z,97.00
2018-11-02T00:28:06.616Z,97.52
2018-11-02T00:30:34.326Z,97.05
2018-11-02T00:33:02.022Z,97.01
2018-11-02T00:35:29.785Z,97.43
2018-11-02T00:37:57.443Z,97.00
2018-11-02T00:40:25.228Z,97.67
2018-11-02T00:42:52.937Z,97.15
2018-11-02T00:45:20.665Z,97.05
2018-11-02T00:47:48.536Z,97.29
2018-11-02T00:50:16.254Z,97.32
2018-11-02T00:52:43.950Z,97.37
2018-11-02T00:55:11.706Z,96.89
2018-11-02T00:57:39.447Z,97.08
2018-11-02T01:00:09.762Z,97.27
2018-11-02T01:02:37.558Z,97.39
2018-11-02T01:05:06.052Z,96.94
2018-11-02T01:07:33.825Z,97.11
2018-11-02T01:10:01.533Z,97.04
2018-11-02T01:12:29.261Z,97.22
2018-11-02T01:14:56.978Z,96.73
2018-11-02T01:17:24.695Z,96.92
2018-11-02T01:19:52.393Z,97.19
2018-11-02T01:22:20.129Z,97.14
2018-11-02T01:24:47.829Z,97.06
2018-11-02T01:27:15.562Z,97.04
2018-11-02T01:29:43.332Z,96.89
2018-11-02T01:32:11.079Z,96.91
2018-11-02T01:34:38.798Z,96.79
2018-11-02T01:37:06.925Z,96.97
2018-11-02T01:39:34.675Z,96.86
2018-11-02T01:42:02.380Z,96.99
2018-11-02T01:44:30.118Z,96.98
2018-11-02T01:46:57.901Z,97.23
2018-11-02T01:49:25.589Z,97.03
2018-11-02T01:51:53.334Z,97.10
2018-11-02T01:54:21.058Z,96.95
2018-11-02T01:56:48.787Z,97.08
2018-11-02T01:59:16.489Z,97.24
2018-11-02T02:01:44.243Z,97.22
2018-11-02T02:04:11.977Z,96.95
2018-11-02T02:06:39.694Z,97.09
2018-11-02T02:09:09.292Z,96.77
2018-11-02T02:11:37.024Z,97.16
2018-11-02T02:14:05.153Z,96.76
2018-11-02T02:16:32.960Z,96.99
2018-11-02T02:19:00.685Z,97.17
2018-11-02T02:21:28.392Z,96.74
2018-11-02T02:23:56.113Z,97.05
2018-11-02T02:26:23.865Z,97.10
2018-11-02T02:28:51.566Z,97.12
2018-11-02T02:31:19.397Z,96.74
2018-11-02T02:33:47.125Z,97.07
2018-11-02T02:36:14.865Z,97.16
2018-11-02T02:38:42.622Z,97.00
2018-11-02T02:41:10.352Z,97.15
2018-11-02T02:43:38.054Z,96.97
2018-11-02T02:46:06.003Z,96.95
2018-11-02T02:48:33.998Z,96.78
2018-11-02T02:51:01.736Z,97.10
2018-11-02T02:53:29.430Z,97.06
2018-11-02T02:55:57.167Z,97.07
2018-11-02T02:58:24.933Z,97.06
2018-11-02T03:00:52.682Z,96.86
2018-11-02T03:03:20.356Z,97.12
2018-11-02T03:05:48.078Z,96.83
2018-11-02T03:08:15.843Z,97.04
2018-11-02T03:10:43.621Z,97.14
2018-11-02T03:13:11.333Z,97.19
2018-11-02T03:15:39.042Z,96.92
2018-11-02T03:18:06.756Z,96.96
2018-11-02T03:20:34.479Z,96.84
2018-11-02T03:23:02.245Z,97.26
2018-11-02T03:25:30.074Z,97.10
2018-11-02T03:27:57.771Z,97.15
2018-11-02T03:30:25.495Z,97.11
2018-11-02T03:32:53.240Z,97.25
2018-11-02T03:35:20.934Z,97.19
2018-11-02T03:37:48.650Z,96.83
2018-11-02T03:40:16.405Z,96.82
2018-11-02T03:42:44.106Z,97.06
2018-11-02T03:45:11.874Z,96.74
2018-11-02T03:47:39.585Z,97.06
2018-11-02T03:50:08.211Z,96.93
2018-11-02T03:52:35.952Z,96.90
2018-11-02T03:55:04.069Z,96.90
2018-11-02T03:57:31.905Z,96.66
2018-11-02T03:59:59.647Z,96.87
2018-11-02T04:02:27.342Z,96.77
2018-11-02T04:04:55.055Z,96.75
2018-11-02T04:07:22.822Z,97.04
2018-11-02T04:09:50.526Z,96.87
2018-11-02T04:12:18.219Z,97.05
2018-11-02T04:14:45.937Z,96.86
2018-11-02T04:17:13.669Z,96.60
2018-11-02T04:19:41.413Z,96.42
2018-11-02T04:22:09.090Z,97.04
2018-11-02T04:24:36.830Z,96.59
2018-11-02T04:27:04.613Z,96.92
2018-11-02T04:29:32.468Z,97.04
2018-11-02T04:32:00.167Z,96.87
2018-11-02T04:34:27.861Z,97.00
2018-11-02T04:36:55.566Z,96.79
2018-11-02T04:39:23.286Z,97.01
2018-11-02T04:41:51.108Z,97.02
2018-11-02T04:44:18.793Z,96.98
2018-11-02T04:46:46.470Z,96.69
2018-11-02T04:49:14.171Z,96.94
2018-11-02T04:51:41.880Z,96.61
2018-11-02T04:54:09.587Z,96.85
2018-11-02T04:56:37.347Z,96.79
2018-11-02T04:59:05.207Z,96.58
2018-11-02T05:01:32.913Z,96.54
2018-11-02T05:04:00.696Z,96.85
2018-11-02T05:06:28.419Z,96.63
2018-11-02T05:08:56.158Z,96.61
2018-11-02T05:11:24.039Z,96.82
2018-11-02T05:13:51.742Z,96.59
2018-11-02T05:16:19.479Z,96.32
2018-11-02T05:18:47.234Z,96.46
2018-11-02T05:21:15.150Z,96.46
2018-11-02T05:23:42.705Z,96.63
2018-11-02T05:26:10.415Z,96.44
2018-11-02T05:28:38.182Z,96.61
2018-11-02T05:31:06.102Z,96.47
2018-11-02T05:33:33.910Z,96.44
2018-11-02T05:36:01.630Z,96.76
2018-11-02T05:38:29.322Z,96.24
2018-11-02T05:40:57.058Z,96.88
2018-11-02T05:43:24.802Z,97.11
2018-11-02T05:45:52.530Z,98.12
2018-11-02T05:48:20.251Z,98.46
2018-11-02T05:50:47.993Z,98.71
2018-11-02T05:53:15.709Z,99.29
2018-11-02T05:55:43.416Z,99.39
2018-11-02T05:58:11.186Z,99.47
2018-11-02T06:00:38.934Z,99.43
2018-11-02T06:03:06.677Z,99.31
2018-11-02T06:05:34.423Z,99.67
2018-11-02T06:08:02.373Z,99.44
2018-11-02T06:10:30.029Z,99.70
2018-11-02T06:12:57.803Z,99.83
2018-11-02T06:15:25.518Z,99.68
2018-11-02T06:17:53.220Z,99.65
2018-11-02T06:20:20.959Z,99.81
2018-11-02T06:22:48.650Z,99.74
2018-11-02T06:25:16.397Z,99.89
2018-11-02T06:27:44.091Z,99.63
2018-11-02T06:30:11.868Z,99.77
2018-11-02T06:32:39.630Z,99.82
2018-11-02T06:35:08.318Z,100.00
2018-11-02T06:37:36.065Z,99.94
2018-11-02T06:40:03.863Z,100.00
2018-11-02T06:42:31.618Z,100.00
2018-11-02T06:44:59.419Z,100.00
2018-11-02T06:47:27.115Z,100.00
2018-11-02T06:49:54.847Z,100.00
2018-11-02T06:52:22.621Z,100.00
2018-11-02T06:54:50.299Z,100.00
2018-11-02T06:57:18.027Z,100.00
2018-11-02T06:59:46.088Z,100.00
2018-11-02T07:02:13.618Z,100.00
2018-11-02T07:04:41.389Z,100.00
2018-11-02T07:07:09.320Z,100.00
2018-11-02T07:09:37.197Z,100.00
2018-11-02T07:12:05.310Z,100.00
2018-11-02T07:14:33.085Z,100.00
2018-11-02T07:17:00.804Z,100.00
2018-11-02T07:19:28.693Z,100.00
2018-11-02T07:21:56.603Z,100.00
2018-11-02T07:24:24.489Z,100.00
2018-11-02T07:26:52.354Z,100.00
2018-11-02T07:29:20.233Z,100.00
2018-11-02T07:31:48.133Z,100.00
2018-11-02T07:34:17.382Z,100.00
2018-11-02T07:36:45.238Z,100.00
2018-11-02T07:39:28.167Z,100.00
2018-11-02T07:41:56.086Z,100.00
2018-11-02T07:44:23.876Z,100.00
2018-11-02T07:46:51.759Z,100.00
2018-11-02T07:49:19.694Z,100.00
2018-11-02T07:51:47.602Z,100.00
2018-11-02T07:54:15.462Z,100.00
2018-11-02T07:56:43.364Z,100.00
2018-11-02T07:59:11.291Z,100.00
2018-11-02T08:01:39.251Z,100.00
2018-11-02T08:04:07.150Z,100.00
2018-11-02T08:06:35.067Z,100.00
2018-11-02T08:09:04.038Z,100.00
2018-11-02T08:11:31.940Z,100.00
2018-11-02T08:13:59.837Z,100.00
2018-11-02T08:16:27.723Z,100.00
2018-11-02T08:18:55.670Z,100.00
2018-11-02T08:21:23.565Z,100.00
2018-11-02T08:23:51.394Z,100.00
2018-11-02T08:26:19.249Z,100.00
2018-11-02T08:28:47.126Z,100.00
2018-11-02T08:31:15.001Z,100.00
2018-11-02T08:33:42.869Z,100.00
2018-11-02T08:36:10.771Z,100.00
2018-11-02T08:38:38.614Z,100.00
2018-11-02T08:41:06.482Z,100.00
2018-11-02T08:43:34.362Z,100.00
2018-11-02T08:46:02.235Z,100.00
2018-11-02T08:48:30.086Z,100.00
2018-11-02T08:50:58.002Z,100.00
2018-11-02T08:53:25.858Z,100.00
2018-11-02T08:55:53.725Z,100.00
2018-11-02T08:58:21.841Z,100.00
2018-11-02T09:00:49.540Z,99.97
2018-11-02T09:03:17.398Z,100.00
2018-11-02T09:05:45.302Z,99.99
2018-11-02T09:08:13.122Z,100.00
2018-11-02T09:10:42.572Z,100.00
2018-11-02T09:13:10.312Z,99.81
2018-11-02T09:15:37.990Z,100.00
2018-11-02T09:18:05.763Z,99.97
2018-11-02T09:20:33.449Z,99.87
2018-11-02T09:23:01.180Z,99.88
2018-11-02T09:25:28.890Z,99.89
2018-11-02T09:27:56.614Z,99.90
2018-11-02T09:30:24.386Z,99.67
2018-11-02T09:32:52.149Z,99.87
2018-11-02T09:35:19.830Z,99.72
2018-11-02T09:37:47.518Z,99.38
2018-11-02T09:40:15.341Z,99.65
2018-11-02T09:42:43.094Z,99.58
2018-11-02T09:45:12.304Z,99.38
2018-11-02T09:47:40.193Z,99.45
2018-11-02T09:50:08.846Z,99.32
2018-11-02T09:52:37.338Z,99.45
2018-11-02T09:55:05.931Z,98.94
2018-11-02T09:57:33.747Z,99.35
2018-11-02T10:00:01.449Z,99.06
2018-11-02T10:02:29.211Z,99.54
2018-11-02T10:04:57.006Z,99.33
2018-11-02T10:07:24.743Z,99.14
2018-11-02T10:09:52.493Z,99.09
2018-11-02T10:12:20.245Z,99.15
2018-11-02T10:14:47.989Z,99.25
2018-11-02T10:17:16.010Z,99.13
2018-11-02T10:19:43.759Z,99.13
2018-11-02T10:22:11.568Z,99.08
2018-11-02T10:24:39.319Z,99.25
2018-11-02T10:27:07.561Z,99.35
2018-11-02T10:29:35.382Z,99.01
2018-11-02T10:32:03.161Z,99.13
2018-11-02T10:34:31.261Z,99.18
2018-11-02T10:36:59.137Z,99.12
2018-11-02T10:39:26.932Z,99.11
2018-11-02T10:41:56.894Z,98.80
2018-11-02T10:44:26.786Z,98.88
2018-11-02T10:46:54.562Z,98.98
2018-11-02T10:49:22.345Z,99.02
2018-11-02T10:51:50.038Z,99.05
2018-11-02T10:54:17.838Z,98.79
2018-11-02T10:56:45.674Z,98.92
2018-11-02T10:59:13.354Z,98.90
2018-11-02T11:01:50.736Z,99.09
2018-11-02T11:04:19.029Z,99.05
2018-11-02T11:06:46.893Z,98.93
2018-11-02T11:09:14.627Z,99.00
2018-11-02T11:11:42.537Z,98.84
2018-11-02T11:14:10.572Z,98.91
2018-11-02T11:16:38.422Z,98.85
2018-11-02T11:19:06.762Z,98.73
2018-11-02T11:21:34.560Z,98.86
2018-11-02T11:24:02.275Z,98.97
2018-11-02T11:26:29.997Z,98.87
2018-11-02T11:28:57.769Z,99.16
2018-11-02T11:31:25.531Z,98.88
2018-11-02T11:33:53.278Z,98.78
2018-11-02T11:36:21.076Z,98.94
2018-11-02T11:38:48.838Z,98.73
2018-11-02T11:41:16.619Z,98.92
2018-11-02T11:43:44.356Z,98.92
2018-11-02T11:46:12.105Z,98.82
2018-11-02T11:48:39.909Z,98.80
2018-11-02T11:51:07.576Z,99.07
2018-11-02T11:53:35.364Z,98.99
2018-11-02T11:56:03.186Z,99.06
2018-11-02T11:58:30.952Z,99.07
2018-11-02T12:00:58.702Z,98.98
2018-11-02T12:03:26.406Z,99.20
2018-11-02T12:05:54.158Z,99.31
2018-11-02T12:08:21.928Z,99.23
2018-11-02T12:10:49.702Z,99.11
2018-11-02T12:13:17.494Z,99.30
2018-11-02T12:15:45.333Z,99.43
2018-11-02T12:18:13.085Z,99.37
2018-11-02T12:20:40.887Z,99.39
2018-11-02T12:23:08.606Z,99.29
2018-11-02T12:25:36.333Z,99.47
2018-11-02T12:28:04.462Z,99.63
2018-11-02T12:30:32.270Z,99.48
2018-11-02T12:33:00.678Z,99.30
2018-11-02T12:35:35.257Z,99.38
2018-11-02T12:38:03.010Z,99.50
2018-11-02T12:40:30.764Z,99.67
2018-11-02T12:42:58.480Z,99.55
2018-11-02T12:45:26.187Z,99.47
2018-11-02T12:47:53.970Z,99.70
2018-11-02T12:50:24.206Z,99.73
2018-11-02T12:52:53.037Z,99.60
2018-11-02T12:55:21.355Z,99.60
2018-11-02T12:57:49.062Z,99.47
2018-11-02T13:00:18.191Z,99.69
2018-11-02T13:02:46.547Z,99.72
2018-11-02T13:05:14.394Z,99.67
2018-11-02T13:07:42.185Z,99.69
2018-11-02T13:10:11.390Z,99.68
2018-11-02T13:12:39.175Z,99.57
2018-11-02T13:15:08.578Z,99.84
2018-11-02T13:17:36.439Z,99.64
2018-11-02T13:20:04.658Z,99.71
2018-11-02T13:22:32.333Z,99.86
2018-11-02T13:25:00.092Z,99.62
2018-11-02T13:27:27.877Z,99.64
2018-11-02T13:29:55.752Z,99.61
2018-11-02T13:32:23.657Z,99.63
2018-11-02T13:34:51.466Z,99.08
2018-11-02T13:37:19.279Z,99.52
2018-11-02T13:39:47.023Z,99.59
2018-11-02T13:42:14.821Z,99.89
2018-11-02T13:44:42.503Z,99.62
2018-11-02T13:47:11.163Z,99.57
2018-11-02T13:49:39.040Z,99.49
2018-11-02T13:52:07.994Z,99.51
2018-11-02T13:54:35.686Z,99.34
2018-11-02T13:57:03.396Z,99.42
2018-11-02T13:59:31.090Z,99.55
2018-11-02T14:01:58.853Z,99.43
2018-11-02T14:04:26.645Z,99.35
2018-11-02T14:06:54.401Z,99.43
2018-11-02T14:09:22.298Z,99.49
2018-11-02T14:11:50.107Z,99.36
2018-11-02T14:14:17.846Z,99.52
2018-11-02T14:16:45.566Z,99.41
2018-11-02T14:19:13.314Z,99.69
2018-11-02T14:21:41.041Z,99.50
2018-11-02T14:24:08.747Z,99.51
2018-11-02T14:26:36.481Z,99.36
2018-11-02T14:29:04.171Z,99.51
2018-11-02T14:31:31.916Z,99.73
2018-11-02T14:33:59.628Z,99.63
2018-11-02T14:36:27.378Z,99.64
2018-11-02T14:38:55.135Z,99.53
2018-11-02T14:41:22.849Z,99.47
2018-11-02T14:43:50.526Z,99.37
2018-11-02T14:46:18.332Z,99.50
2018-11-02T14:48:46.082Z,99.63
2018-11-02T14:51:13.814Z,99.61
2018-11-02T14:53:41.674Z,99.34
2018-11-02T14:56:09.265Z,99.46
2018-11-02T14:58:37.010Z,99.40
2018-11-02T15:01:04.835Z,99.66
2018-11-02T15:03:32.581Z,99.38
2018-11-02T15:06:00.321Z,99.56
2018-11-02T15:08:28.016Z,99.52
2018-11-02T15:10:55.826Z,99.50
2018-11-02T15:13:23.565Z,99.45
2018-11-02T15:15:51.283Z,99.48
2018-11-02T15:18:18.986Z,99.57
2018-11-02T15:20:46.714Z,99.54
2018-11-02T15:23:14.461Z,99.53
2018-11-02T15:25:42.160Z,99.68
2018-11-02T15:28:10.019Z,99.56
2018-11-02T15:30:37.738Z,99.44
2018-11-02T15:33:06.630Z,99.72
2018-11-02T15:35:34.429Z,99.51
2018-11-02T15:38:02.169Z,99.66
2018-11-02T15:40:29.973Z,99.60
2018-11-02T15:42:57.714Z,99.48
2018-11-02T15:45:25.431Z,99.52
2018-11-02T15:47:53.182Z,99.74
2018-11-02T15:50:20.876Z,99.55
2018-11-02T15:52:48.599Z,99.79
2018-11-02T15:55:16.334Z,99.23
2018-11-02T15:57:44.071Z,99.61
2018-11-02T16:00:18.581Z,99.73
2018-11-02T16:02:47.887Z,99.67
2018-11-02T16:05:15.583Z,99.80
2018-11-02T16:07:43.362Z,99.78
2018-11-02T16:10:11.812Z,99.72
2018-11-02T16:12:39.999Z,99.76
2018-11-02T16:15:08.501Z,99.70
2018-11-02T16:17:36.642Z,99.63
2018-11-02T16:20:05.454Z,99.83
2018-11-02T16:22:33.172Z,99.54
2018-11-02T16:25:00.899Z,99.61
2018-11-02T16:27:28.622Z,99.66
2018-11-02T16:29:56.440Z,99.57
2018-11-02T16:32:24.182Z,99.13
2018-11-02T16:34:51.888Z,99.24
2018-11-02T16:37:19.689Z,99.33
2018-11-02T16:39:47.407Z,99.06
2018-11-02T16:42:15.147Z,99.37
2018-11-02T16:44:42.981Z,99.35
2018-11-02T16:47:10.683Z,99.35
2018-11-02T16:49:38.438Z,99.39
2018-11-02T16:52:06.362Z,99.59
2018-11-02T16:54:34.185Z,99.39
2018-11-02T16:57:01.982Z,99.39
2018-11-02T16:59:29.730Z,99.60
2018-11-02T17:01:57.489Z,99.69
2018-11-02T17:04:25.245Z,99.73
2018-11-02T17:06:53.165Z,99.73
2018-11-02T17:09:20.979Z,99.68
2018-11-02T17:11:48.705Z,99.75
2018-11-02T17:14:16.451Z,100.00
2018-11-02T17:16:44.178Z,99.74
2018-11-02T17:19:11.905Z,100.00
2018-11-02T17:21:40.308Z,100.00
2018-11-02T17:24:08.030Z,99.95
2018-11-02T17:26:35.734Z,99.91
2018-11-02T17:29:03.606Z,100.00
2018-11-02T17:31:31.318Z,100.00
2018-11-02T17:33:59.003Z,100.00
2018-11-02T17:36:26.807Z,100.00
2018-11-02T17:38:54.493Z,100.00
2018-11-02T17:41:22.246Z,100.00
2018-11-02T17:43:50.021Z,100.00
2018-11-02T17:46:17.759Z,100.00
2018-11-02T17:48:45.497Z,100.00
2018-11-02T17:51:13.218Z,100.00
2018-11-02T17:53:41.180Z,100.00
2018-11-02T17:56:08.899Z,100.00
2018-11-02T17:58:36.674Z,100.00
2018-11-02T18:01:04.457Z,100.00
2018-11-02T18:03:32.171Z,99.99
2018-11-02T18:05:59.975Z,100.00
2018-11-02T18:08:27.979Z,100.00
2018-11-02T18:10:55.642Z,100.00
2018-11-02T18:13:23.384Z,100.00
2018-11-02T18:15:51.168Z,100.00
2018-11-02T18:18:18.846Z,99.97
2018-11-02T18:20:46.585Z,100.00
2018-11-02T18:23:14.326Z,100.00
2018-11-02T18:25:42.063Z,100.00
2018-11-02T18:28:09.748Z,100.00
2018-11-02T18:30:37.473Z,99.95
2018-11-02T18:33:05.186Z,100.00
2018-11-02T18:35:33.011Z,100.00
2018-11-02T18:38:00.637Z,99.94
2018-11-02T18:40:28.375Z,100.00
2018-11-02T18:42:56.152Z,100.00
2018-11-02T18:45:24.125Z,100.00
2018-11-02T18:47:51.851Z,100.00
2018-11-02T18:50:20.794Z,99.97
2018-11-02T18:52:49.067Z,99.89
2018-11-02T18:55:17.133Z,99.85
2018-11-02T18:57:44.900Z,99.68
2018-11-02T19:00:12.864Z,100.00
2018-11-02T19:02:40.861Z,99.76
2018-11-02T19:05:10.647Z,99.86
2018-11-02T19:07:38.520Z,99.62
2018-11-02T19:10:06.737Z,99.35
2018-11-02T19:12:34.466Z,99.59
2018-11-02T19:15:02.215Z,99.09
2018-11-02T19:17:29.920Z,99.39
2018-11-02T19:19:57.701Z,99.31
2018-11-02T19:22:25.450Z,99.16
2018-11-02T19:24:53.154Z,98.97
2018-11-02T19:27:20.944Z,99.00
2018-11-02T19:29:48.635Z,99.20
2018-11-02T19:32:16.335Z,99.42
2018-11-02T19:34:44.279Z,99.30
2018-11-02T19:37:11.777Z,99.32
2018-11-02T19:39:39.503Z,99.36
2018-11-02T19:42:07.283Z,99.32
2018-11-02T19:44:35.137Z,99.46
2018-11-02T19:47:02.855Z,99.54
2018-11-02T19:49:30.583Z,99.30
2018-11-02T19:51:58.289Z,99.88
2018-11-02T19:54:25.982Z,99.58
2018-11-02T19:56:53.707Z,99.57
2018-11-02T19:59:21.427Z,99.63
2018-11-02T20:01:49.167Z,99.39
2018-11-02T20:04:16.911Z,99.52
2018-11-02T20:06:44.634Z,99.53
2018-11-02T20:09:13.370Z,99.61
2018-11-02T20:11:41.649Z,99.45
2018-11-02T20:14:09.405Z,99.37
2018-11-02T20:16:37.145Z,99.70
2018-11-02T20:19:05.411Z,99.72
2018-11-02T20:21:33.088Z,99.38
2018-11-02T20:24:00.813Z,99.50
2018-11-02T20:26:28.517Z,99.34
2018-11-02T20:28:56.235Z,99.23
2018-11-02T20:31:23.991Z,99.08
2018-11-02T20:33:51.722Z,99.23
2018-11-02T20:36:19.422Z,99.25
2018-11-02T20:38:47.194Z,99.56
2018-11-02T20:41:14.921Z,99.32
2018-11-02T20:43:42.631Z,99.51
2018-11-02T20:46:10.317Z,99.60
2018-11-02T20:48:38.117Z,99.45
2018-11-02T20:51:05.990Z,99.41
2018-11-02T20:53:33.727Z,99.36
2018-11-02T20:56:01.499Z,99.45
2018-11-02T20:58:29.209Z,99.36
2018-11-02T21:00:56.943Z,99.47
2018-11-02T21:03:24.799Z,99.51
2018-11-02T21:05:52.507Z,99.54
2018-11-02T21:08:20.275Z,99.63
2018-11-02T21:10:47.981Z,99.29
2018-11-02T21:13:15.697Z,99.32
2018-11-02T21:15:43.522Z,99.44
2018-11-02T21:18:11.219Z,99.21
2018-11-02T21:20:39.003Z,99.36
2018-11-02T21:23:06.752Z,99.04
2018-11-02T21:25:34.507Z,99.18
2018-11-02T21:28:02.210Z,99.20
2018-11-02T21:30:29.978Z,98.76
2018-11-02T21:32:57.666Z,98.84
2018-11-02T21:35:25.431Z,98.46
2018-11-02T21:37:53.227Z,98.55
2018-11-02T21:40:22.140Z,98.29
2018-11-02T21:42:49.877Z,98.04
2018-11-02T21:45:19.254Z,98.07
2018-11-02T21:47:47.107Z,98.07
2018-11-02T21:50:15.321Z,97.92
2018-11-02T21:52:43.140Z,98.11
2018-11-02T21:55:10.939Z,97.71
2018-11-02T21:57:38.886Z,98.08
2018-11-02T22:00:12.238Z,97.88
2018-11-02T22:02:40.245Z,98.04
2018-11-02T22:05:09.167Z,97.72
2018-11-02T22:07:36.963Z,97.63
2018-11-02T22:10:06.162Z,97.58
2018-11-02T22:12:33.906Z,97.78
2018-11-02T22:15:01.704Z,97.93
2018-11-02T22:17:29.410Z,97.86
2018-11-02T22:19:57.154Z,98.01
2018-11-02T22:22:24.954Z,97.88
2018-11-02T22:24:52.673Z,97.92
2018-11-02T22:27:20.435Z,97.95
2018-11-02T22:29:48.222Z,98.10
2018-11-02T22:32:15.932Z,97.95
2018-11-02T22:34:43.682Z,98.17
2018-11-02T22:39:34.045Z,97.80
2018-11-02T22:42:01.945Z,98.03
2018-11-02T22:44:29.601Z,98.07
2018-11-02T22:46:57.434Z,98.34
2018-11-02T22:49:25.177Z,98.43
2018-11-02T22:51:52.993Z,98.45
2018-11-02T22:54:20.726Z,98.30
2018-11-02T22:56:48.458Z,98.43
2018-11-02T22:59:16.233Z,98.26
2018-11-02T23:01:44.027Z,98.41
2018-11-02T23:04:11.810Z,98.46
2018-11-02T23:06:39.643Z,98.48
2018-11-02T23:09:08.720Z,98.82
2018-11-02T23:11:36.754Z,98.83
2018-11-02T23:14:05.189Z,98.88
2018-11-02T23:16:33.015Z,99.01
2018-11-02T23:19:00.919Z,99.17
2018-11-02T23:21:28.793Z,99.06
2018-11-02T23:23:56.796Z,99.06
2018-11-02T23:26:24.713Z,98.88
2018-11-02T23:28:52.611Z,98.94
2018-11-02T23:31:20.353Z,99.30
2018-11-02T23:33:48.060Z,99.07
2018-11-02T23:36:15.772Z,99.16
2018-11-02T23:38:43.534Z,99.31
2018-11-02T23:41:11.262Z,99.05
2018-11-02T23:43:38.943Z,99.37
2018-11-02T23:46:06.653Z,99.42
2018-11-02T23:48:34.354Z,99.75
2018-11-02T23:51:02.070Z,99.58
2018-11-02T23:53:29.798Z,99.54
2018-11-02T23:55:57.518Z,99.53
2018-11-02T23:58:25.276Z,99.44
